sensor_id;sensor_type;location;lat;lon;timestamp;P1;durP1;ratioP1;P2;durP2;ratioP2
18503;SDS011;9381;54.244;10.074;2023-05-07T00:01:55;26.60;;;16.50;;
18503;SDS011;9381;54.244;10.074;2023-05-07T00:06:55;27.07;;;17.20;;
18503;SDS011;9381;54.244;10.074;2023-05-07T00:11:56;33.00;;;16.67;;
18503;SDS011;9381;54.244;10.074;2023-05-07T00:16:56;28.67;;;17.23;;
18503;SDS011;9381;54.244;10.074;2023-05-07T00:21:56;27.40;;;17.10;;
18503;SDS011;9381;54.244;10.074;2023-05-07T00:26:58;25.63;;;16.93;;
18503;SDS011;9381;54.244;10.074;2023-05-07T00:31:58;27.20;;;16.70;;
18503;SDS011;9381;54.244;10.074;2023-05-07T00:36:58;24.50;;;16.20;;
18503;SDS011;9381;54.244;10.074;2023-05-07T00:41:59;27.83;;;16.67;;
18503;SDS011;9381;54.244;10.074;2023-05-07T00:47:01;21.30;;;16.53;;
18503;SDS011;9381;54.244;10.074;2023-05-07T00:52:03;25.77;;;17.67;;
18503;SDS011;9381;54.244;10.074;2023-05-07T00:57:04;24.93;;;17.40;;
18503;SDS011;9381;54.244;10.074;2023-05-07T01:02:04;24.93;;;16.90;;
18503;SDS011;9381;54.244;10.074;2023-05-07T01:07:05;23.05;;;16.67;;
18503;SDS011;9381;54.244;10.074;2023-05-07T01:12:06;25.27;;;16.77;;
18503;SDS011;9381;54.244;10.074;2023-05-07T01:17:07;21.53;;;16.43;;
18503;SDS011;9381;54.244;10.074;2023-05-07T01:22:08;27.13;;;17.60;;
18503;SDS011;9381;54.244;10.074;2023-05-07T01:27:11;19.07;;;16.13;;
18503;SDS011;9381;54.244;10.074;2023-05-07T01:32:11;26.95;;;16.92;;
18503;SDS011;9381;54.244;10.074;2023-05-07T01:37:13;23.50;;;17.03;;
18503;SDS011;9381;54.244;10.074;2023-05-07T01:42:14;20.67;;;16.73;;
18503;SDS011;9381;54.244;10.074;2023-05-07T01:47:15;24.17;;;17.57;;
18503;SDS011;9381;54.244;10.074;2023-05-07T01:52:16;27.13;;;17.83;;
18503;SDS011;9381;54.244;10.074;2023-05-07T01:57:17;26.63;;;18.77;;
18503;SDS011;9381;54.244;10.074;2023-05-07T02:02:17;26.08;;;18.60;;
18503;SDS011;9381;54.244;10.074;2023-05-07T02:07:17;27.15;;;18.70;;
18503;SDS011;9381;54.244;10.074;2023-05-07T02:12:17;22.60;;;17.85;;
18503;SDS011;9381;54.244;10.074;2023-05-07T02:17:18;22.27;;;17.90;;
18503;SDS011;9381;54.244;10.074;2023-05-07T02:22:18;22.27;;;17.33;;
18503;SDS011;9381;54.244;10.074;2023-05-07T02:27:18;21.83;;;17.05;;
18503;SDS011;9381;54.244;10.074;2023-05-07T02:32:19;23.47;;;16.53;;
18503;SDS011;9381;54.244;10.074;2023-05-07T02:37:20;19.73;;;15.80;;
18503;SDS011;9381;54.244;10.074;2023-05-07T02:42:20;20.25;;;15.68;;
18503;SDS011;9381;54.244;10.074;2023-05-07T02:47:20;21.02;;;15.85;;
18503;SDS011;9381;54.244;10.074;2023-05-07T02:52:21;22.93;;;16.13;;
18503;SDS011;9381;54.244;10.074;2023-05-07T02:57:21;23.83;;;16.37;;
18503;SDS011;9381;54.244;10.074;2023-05-07T03:02:22;21.20;;;16.50;;
18503;SDS011;9381;54.244;10.074;2023-05-07T03:07:22;21.30;;;16.45;;
18503;SDS011;9381;54.244;10.074;2023-05-07T03:12:23;22.80;;;15.93;;
18503;SDS011;9381;54.244;10.074;2023-05-07T03:17:23;19.13;;;16.23;;
18503;SDS011;9381;54.244;10.074;2023-05-07T03:22:24;21.98;;;15.98;;
18503;SDS011;9381;54.244;10.074;2023-05-07T03:27:24;21.87;;;17.67;;
18503;SDS011;9381;54.244;10.074;2023-05-07T03:32:24;21.17;;;16.05;;
18503;SDS011;9381;54.244;10.074;2023-05-07T03:37:25;21.50;;;16.93;;
18503;SDS011;9381;54.244;10.074;2023-05-07T03:42:25;19.17;;;15.87;;
18503;SDS011;9381;54.244;10.074;2023-05-07T03:47:25;20.93;;;15.87;;
18503;SDS011;9381;54.244;10.074;2023-05-07T03:52:26;18.58;;;16.23;;
18503;SDS011;9381;54.244;10.074;2023-05-07T03:57:26;17.98;;;15.85;;
18503;SDS011;9381;54.244;10.074;2023-05-07T04:02:26;19.43;;;15.93;;
18503;SDS011;9381;54.244;10.074;2023-05-07T04:07:27;18.92;;;15.27;;
18503;SDS011;9381;54.244;10.074;2023-05-07T04:12:29;18.85;;;15.07;;
18503;SDS011;9381;54.244;10.074;2023-05-07T04:17:29;18.37;;;15.30;;
18503;SDS011;9381;54.244;10.074;2023-05-07T04:22:30;19.17;;;15.52;;
18503;SDS011;9381;54.244;10.074;2023-05-07T04:27:30;16.92;;;14.07;;
18503;SDS011;9381;54.244;10.074;2023-05-07T04:32:30;16.20;;;13.27;;
18503;SDS011;9381;54.244;10.074;2023-05-07T04:37:33;16.27;;;14.05;;
18503;SDS011;9381;54.244;10.074;2023-05-07T04:42:33;16.97;;;13.77;;
18503;SDS011;9381;54.244;10.074;2023-05-07T04:47:34;15.00;;;13.20;;
18503;SDS011;9381;54.244;10.074;2023-05-07T04:52:34;15.05;;;12.43;;
18503;SDS011;9381;54.244;10.074;2023-05-07T04:57:34;13.27;;;11.88;;
18503;SDS011;9381;54.244;10.074;2023-05-07T05:02:34;15.77;;;12.85;;
18503;SDS011;9381;54.244;10.074;2023-05-07T05:07:35;13.77;;;12.15;;
18503;SDS011;9381;54.244;10.074;2023-05-07T05:12:35;15.85;;;13.75;;
18503;SDS011;9381;54.244;10.074;2023-05-07T05:17:35;15.93;;;13.15;;
18503;SDS011;9381;54.244;10.074;2023-05-07T05:22:36;15.77;;;12.60;;
18503;SDS011;9381;54.244;10.074;2023-05-07T05:27:36;16.77;;;13.50;;
18503;SDS011;9381;54.244;10.074;2023-05-07T05:32:37;19.30;;;14.95;;
18503;SDS011;9381;54.244;10.074;2023-05-07T05:37:37;18.92;;;14.85;;
18503;SDS011;9381;54.244;10.074;2023-05-07T05:42:37;17.23;;;13.90;;
18503;SDS011;9381;54.244;10.074;2023-05-07T05:47:38;17.13;;;13.53;;
18503;SDS011;9381;54.244;10.074;2023-05-07T05:52:39;15.13;;;13.53;;
18503;SDS011;9381;54.244;10.074;2023-05-07T05:57:40;15.50;;;13.83;;
18503;SDS011;9381;54.244;10.074;2023-05-07T06:02:41;17.77;;;14.13;;
18503;SDS011;9381;54.244;10.074;2023-05-07T06:07:42;16.63;;;13.03;;
18503;SDS011;9381;54.244;10.074;2023-05-07T06:12:42;15.85;;;12.75;;
18503;SDS011;9381;54.244;10.074;2023-05-07T06:17:43;16.80;;;13.27;;
18503;SDS011;9381;54.244;10.074;2023-05-07T06:22:43;16.83;;;12.85;;
18503;SDS011;9381;54.244;10.074;2023-05-07T06:27:43;14.57;;;12.20;;
18503;SDS011;9381;54.244;10.074;2023-05-07T06:32:44;15.40;;;10.95;;
18503;SDS011;9381;54.244;10.074;2023-05-07T06:37:44;13.15;;;10.82;;
18503;SDS011;9381;54.244;10.074;2023-05-07T06:42:44;12.17;;;10.33;;
18503;SDS011;9381;54.244;10.074;2023-05-07T06:47:45;12.93;;;10.73;;
18503;SDS011;9381;54.244;10.074;2023-05-07T06:52:45;12.57;;;9.87;;
18503;SDS011;9381;54.244;10.074;2023-05-07T06:57:46;12.63;;;10.30;;
18503;SDS011;9381;54.244;10.074;2023-05-07T07:02:46;11.93;;;10.20;;
18503;SDS011;9381;54.244;10.074;2023-05-07T07:07:46;13.00;;;10.83;;
18503;SDS011;9381;54.244;10.074;2023-05-07T07:12:52;11.77;;;10.60;;
18503;SDS011;9381;54.244;10.074;2023-05-07T07:17:53;11.70;;;10.50;;
18503;SDS011;9381;54.244;10.074;2023-05-07T07:22:53;14.53;;;11.53;;
18503;SDS011;9381;54.244;10.074;2023-05-07T07:27:55;12.97;;;10.20;;
18503;SDS011;9381;54.244;10.074;2023-05-07T07:32:55;12.37;;;10.23;;
18503;SDS011;9381;54.244;10.074;2023-05-07T07:38:00;12.13;;;9.73;;
18503;SDS011;9381;54.244;10.074;2023-05-07T07:43:01;11.57;;;9.63;;
18503;SDS011;9381;54.244;10.074;2023-05-07T07:48:01;11.17;;;9.47;;
18503;SDS011;9381;54.244;10.074;2023-05-07T07:53:02;9.17;;;8.17;;
18503;SDS011;9381;54.244;10.074;2023-05-07T07:58:02;9.57;;;8.57;;
18503;SDS011;9381;54.244;10.074;2023-05-07T08:03:02;10.43;;;9.33;;
18503;SDS011;9381;54.244;10.074;2023-05-07T08:08:03;11.63;;;9.13;;
18503;SDS011;9381;54.244;10.074;2023-05-07T08:13:04;10.50;;;8.67;;
18503;SDS011;9381;54.244;10.074;2023-05-07T08:18:05;8.37;;;7.00;;
18503;SDS011;9381;54.244;10.074;2023-05-07T08:23:05;10.73;;;7.60;;
18503;SDS011;9381;54.244;10.074;2023-05-07T08:28:07;9.63;;;7.60;;
18503;SDS011;9381;54.244;10.074;2023-05-07T08:33:08;7.60;;;6.90;;
18503;SDS011;9381;54.244;10.074;2023-05-07T08:38:09;12.03;;;8.00;;
18503;SDS011;9381;54.244;10.074;2023-05-07T08:43:10;9.60;;;7.95;;
18503;SDS011;9381;54.244;10.074;2023-05-07T08:48:16;9.77;;;7.53;;
18503;SDS011;9381;54.244;10.074;2023-05-07T08:53:17;10.00;;;8.20;;
18503;SDS011;9381;54.244;10.074;2023-05-07T08:58:18;11.33;;;7.83;;
18503;SDS011;9381;54.244;10.074;2023-05-07T09:03:18;8.87;;;7.70;;
18503;SDS011;9381;54.244;10.074;2023-05-07T09:08:18;8.95;;;8.10;;
18503;SDS011;9381;54.244;10.074;2023-05-07T09:13:25;8.73;;;7.37;;
18503;SDS011;9381;54.244;10.074;2023-05-07T09:18:27;7.93;;;7.10;;
18503;SDS011;9381;54.244;10.074;2023-05-07T09:23:27;8.60;;;7.57;;
18503;SDS011;9381;54.244;10.074;2023-05-07T09:28:28;8.57;;;7.10;;
18503;SDS011;9381;54.244;10.074;2023-05-07T09:33:28;9.73;;;7.70;;
18503;SDS011;9381;54.244;10.074;2023-05-07T09:38:29;8.97;;;7.30;;
18503;SDS011;9381;54.244;10.074;2023-05-07T09:43:33;7.83;;;7.03;;
18503;SDS011;9381;54.244;10.074;2023-05-07T09:48:36;10.20;;;7.53;;
18503;SDS011;9381;54.244;10.074;2023-05-07T09:53:38;7.30;;;6.30;;
18503;SDS011;9381;54.244;10.074;2023-05-07T09:58:40;7.90;;;6.77;;
18503;SDS011;9381;54.244;10.074;2023-05-07T10:03:41;10.03;;;7.03;;
18503;SDS011;9381;54.244;10.074;2023-05-07T10:08:43;8.07;;;6.30;;
18503;SDS011;9381;54.244;10.074;2023-05-07T10:13:44;7.40;;;6.57;;
18503;SDS011;9381;54.244;10.074;2023-05-07T10:18:46;6.53;;;5.93;;
18503;SDS011;9381;54.244;10.074;2023-05-07T10:23:49;6.57;;;5.50;;
18503;SDS011;9381;54.244;10.074;2023-05-07T10:28:53;7.50;;;6.50;;
18503;SDS011;9381;54.244;10.074;2023-05-07T10:33:58;6.10;;;5.40;;
18503;SDS011;9381;54.244;10.074;2023-05-07T10:39:01;6.17;;;5.60;;
18503;SDS011;9381;54.244;10.074;2023-05-07T10:44:02;5.83;;;5.33;;
18503;SDS011;9381;54.244;10.074;2023-05-07T11:04:20;5.53;;;5.00;;
18503;SDS011;9381;54.244;10.074;2023-05-07T11:09:53;6.07;;;5.47;;
18503;SDS011;9381;54.244;10.074;2023-05-07T11:14:53;6.40;;;5.03;;
18503;SDS011;9381;54.244;10.074;2023-05-07T11:19:54;5.30;;;4.80;;
18503;SDS011;9381;54.244;10.074;2023-05-07T11:24:55;5.47;;;4.50;;
18503;SDS011;9381;54.244;10.074;2023-05-07T11:29:57;4.67;;;4.27;;
18503;SDS011;9381;54.244;10.074;2023-05-07T11:34:58;4.27;;;3.87;;
18503;SDS011;9381;54.244;10.074;2023-05-07T11:40:03;4.10;;;3.80;;
18503;SDS011;9381;54.244;10.074;2023-05-07T11:45:06;3.50;;;3.20;;
18503;SDS011;9381;54.244;10.074;2023-05-07T11:50:07;6.23;;;3.73;;
18503;SDS011;9381;54.244;10.074;2023-05-07T11:55:08;4.37;;;3.60;;
18503;SDS011;9381;54.244;10.074;2023-05-07T12:00:08;4.47;;;3.20;;
18503;SDS011;9381;54.244;10.074;2023-05-07T12:05:09;4.70;;;3.20;;
18503;SDS011;9381;54.244;10.074;2023-05-07T12:10:10;3.30;;;3.07;;
18503;SDS011;9381;54.244;10.074;2023-05-07T12:15:15;3.80;;;3.07;;
18503;SDS011;9381;54.244;10.074;2023-05-07T12:20:16;3.33;;;3.00;;
18503;SDS011;9381;54.244;10.074;2023-05-07T12:25:18;3.17;;;2.87;;
18503;SDS011;9381;54.244;10.074;2023-05-07T12:30:20;3.50;;;2.90;;
18503;SDS011;9381;54.244;10.074;2023-05-07T12:35:29;5.20;;;2.90;;
18503;SDS011;9381;54.244;10.074;2023-05-07T12:40:44;2.93;;;2.70;;
18503;SDS011;9381;54.244;10.074;2023-05-07T12:45:48;2.87;;;2.50;;
18503;SDS011;9381;54.244;10.074;2023-05-07T12:50:50;4.57;;;2.67;;
18503;SDS011;9381;54.244;10.074;2023-05-07T12:55:52;4.73;;;2.50;;
18503;SDS011;9381;54.244;10.074;2023-05-07T13:00:55;3.97;;;2.80;;
18503;SDS011;9381;54.244;10.074;2023-05-07T13:06:02;4.07;;;2.83;;
18503;SDS011;9381;54.244;10.074;2023-05-07T13:11:07;4.57;;;3.00;;
18503;SDS011;9381;54.244;10.074;2023-05-07T13:16:09;4.03;;;3.10;;
18503;SDS011;9381;54.244;10.074;2023-05-07T13:21:10;3.63;;;2.90;;
18503;SDS011;9381;54.244;10.074;2023-05-07T13:26:12;2.60;;;2.40;;
18503;SDS011;9381;54.244;10.074;2023-05-07T13:31:13;2.70;;;2.43;;
18503;SDS011;9381;54.244;10.074;2023-05-07T13:36:13;3.88;;;2.63;;
18503;SDS011;9381;54.244;10.074;2023-05-07T13:41:14;4.20;;;2.67;;
18503;SDS011;9381;54.244;10.074;2023-05-07T13:46:14;3.23;;;2.90;;
18503;SDS011;9381;54.244;10.074;2023-05-07T13:51:15;4.07;;;2.53;;
18503;SDS011;9381;54.244;10.074;2023-05-07T13:56:16;6.53;;;2.47;;
18503;SDS011;9381;54.244;10.074;2023-05-07T14:01:17;4.17;;;2.40;;
18503;SDS011;9381;54.244;10.074;2023-05-07T14:06:17;2.70;;;2.50;;
18503;SDS011;9381;54.244;10.074;2023-05-07T14:11:17;3.53;;;2.50;;
18503;SDS011;9381;54.244;10.074;2023-05-07T14:16:18;2.78;;;2.45;;
18503;SDS011;9381;54.244;10.074;2023-05-07T14:21:18;3.60;;;2.50;;
18503;SDS011;9381;54.244;10.074;2023-05-07T14:26:19;2.60;;;2.33;;
18503;SDS011;9381;54.244;10.074;2023-05-07T14:31:20;2.40;;;2.20;;
18503;SDS011;9381;54.244;10.074;2023-05-07T14:36:21;2.30;;;2.10;;
18503;SDS011;9381;54.244;10.074;2023-05-07T14:41:22;3.03;;;2.60;;
18503;SDS011;9381;54.244;10.074;2023-05-07T14:46:23;3.43;;;2.37;;
18503;SDS011;9381;54.244;10.074;2023-05-07T14:51:24;3.00;;;2.47;;
18503;SDS011;9381;54.244;10.074;2023-05-07T14:56:26;3.23;;;2.17;;
18503;SDS011;9381;54.244;10.074;2023-05-07T15:01:26;3.10;;;2.60;;
18503;SDS011;9381;54.244;10.074;2023-05-07T15:06:26;4.30;;;2.67;;
18503;SDS011;9381;54.244;10.074;2023-05-07T15:11:27;3.80;;;2.73;;
18503;SDS011;9381;54.244;10.074;2023-05-07T15:16:27;3.57;;;2.47;;
18503;SDS011;9381;54.244;10.074;2023-05-07T15:21:27;3.20;;;2.73;;
18503;SDS011;9381;54.244;10.074;2023-05-07T15:26:28;3.77;;;2.17;;
18503;SDS011;9381;54.244;10.074;2023-05-07T15:31:29;2.70;;;2.50;;
18503;SDS011;9381;54.244;10.074;2023-05-07T15:36:30;4.23;;;2.63;;
18503;SDS011;9381;54.244;10.074;2023-05-07T15:41:30;3.67;;;2.70;;
18503;SDS011;9381;54.244;10.074;2023-05-07T15:46:30;3.03;;;2.63;;
18503;SDS011;9381;54.244;10.074;2023-05-07T15:51:33;2.80;;;2.50;;
18503;SDS011;9381;54.244;10.074;2023-05-07T15:56:34;3.17;;;2.70;;
18503;SDS011;9381;54.244;10.074;2023-05-07T16:01:35;3.70;;;3.00;;
18503;SDS011;9381;54.244;10.074;2023-05-07T16:06:36;2.80;;;2.60;;
18503;SDS011;9381;54.244;10.074;2023-05-07T16:11:36;6.33;;;2.60;;
18503;SDS011;9381;54.244;10.074;2023-05-07T16:16:36;2.50;;;2.30;;
18503;SDS011;9381;54.244;10.074;2023-05-07T16:21:39;3.03;;;2.30;;
18503;SDS011;9381;54.244;10.074;2023-05-07T16:26:41;3.13;;;2.57;;
18503;SDS011;9381;54.244;10.074;2023-05-07T16:31:41;5.90;;;3.10;;
18503;SDS011;9381;54.244;10.074;2023-05-07T16:36:41;3.67;;;2.57;;
18503;SDS011;9381;54.244;10.074;2023-05-07T16:41:42;5.83;;;2.87;;
18503;SDS011;9381;54.244;10.074;2023-05-07T16:46:43;4.33;;;3.50;;
18503;SDS011;9381;54.244;10.074;2023-05-07T16:51:43;6.33;;;2.90;;
18503;SDS011;9381;54.244;10.074;2023-05-07T16:56:45;4.43;;;2.70;;
18503;SDS011;9381;54.244;10.074;2023-05-07T17:01:45;5.47;;;3.13;;
18503;SDS011;9381;54.244;10.074;2023-05-07T17:06:45;4.63;;;3.17;;
18503;SDS011;9381;54.244;10.074;2023-05-07T17:11:46;3.30;;;2.90;;
18503;SDS011;9381;54.244;10.074;2023-05-07T17:16:46;4.77;;;3.10;;
18503;SDS011;9381;54.244;10.074;2023-05-07T17:21:46;7.03;;;3.10;;
18503;SDS011;9381;54.244;10.074;2023-05-07T17:26:47;5.30;;;3.43;;
18503;SDS011;9381;54.244;10.074;2023-05-07T17:31:47;4.40;;;3.07;;
18503;SDS011;9381;54.244;10.074;2023-05-07T17:36:48;5.30;;;3.08;;
18503;SDS011;9381;54.244;10.074;2023-05-07T17:41:48;4.50;;;3.60;;
18503;SDS011;9381;54.244;10.074;2023-05-07T17:46:48;9.67;;;5.37;;
18503;SDS011;9381;54.244;10.074;2023-05-07T17:51:49;7.93;;;4.50;;
18503;SDS011;9381;54.244;10.074;2023-05-07T17:56:49;9.03;;;5.30;;
18503;SDS011;9381;54.244;10.074;2023-05-07T18:01:50;8.40;;;4.97;;
18503;SDS011;9381;54.244;10.074;2023-05-07T18:06:50;9.63;;;5.72;;
18503;SDS011;9381;54.244;10.074;2023-05-07T18:11:50;7.83;;;4.70;;
18503;SDS011;9381;54.244;10.074;2023-05-07T18:16:51;10.88;;;5.85;;
18503;SDS011;9381;54.244;10.074;2023-05-07T18:21:53;8.60;;;4.87;;
18503;SDS011;9381;54.244;10.074;2023-05-07T18:26:54;7.27;;;5.13;;
18503;SDS011;9381;54.244;10.074;2023-05-07T18:31:54;7.83;;;5.50;;
18503;SDS011;9381;54.244;10.074;2023-05-07T18:36:55;8.65;;;5.53;;
18503;SDS011;9381;54.244;10.074;2023-05-07T18:41:55;8.67;;;6.03;;
18503;SDS011;9381;54.244;10.074;2023-05-07T18:46:57;9.80;;;5.77;;
18503;SDS011;9381;54.244;10.074;2023-05-07T18:51:58;10.60;;;5.50;;
18503;SDS011;9381;54.244;10.074;2023-05-07T18:56:58;7.57;;;5.80;;
18503;SDS011;9381;54.244;10.074;2023-05-07T19:01:59;10.63;;;5.17;;
18503;SDS011;9381;54.244;10.074;2023-05-07T19:06:59;10.50;;;6.03;;
18503;SDS011;9381;54.244;10.074;2023-05-07T19:12:00;8.43;;;5.60;;
18503;SDS011;9381;54.244;10.074;2023-05-07T19:17:01;9.10;;;5.70;;
18503;SDS011;9381;54.244;10.074;2023-05-07T19:22:01;9.63;;;6.10;;
18503;SDS011;9381;54.244;10.074;2023-05-07T19:27:01;7.85;;;5.47;;
18503;SDS011;9381;54.244;10.074;2023-05-07T19:32:02;10.50;;;5.97;;
18503;SDS011;9381;54.244;10.074;2023-05-07T19:37:03;9.17;;;6.30;;
18503;SDS011;9381;54.244;10.074;2023-05-07T19:42:04;7.87;;;5.23;;
18503;SDS011;9381;54.244;10.074;2023-05-07T19:47:05;11.47;;;6.13;;
18503;SDS011;9381;54.244;10.074;2023-05-07T19:52:05;9.30;;;5.70;;
18503;SDS011;9381;54.244;10.074;2023-05-07T19:57:06;8.48;;;5.18;;
18503;SDS011;9381;54.244;10.074;2023-05-07T20:02:06;8.00;;;5.30;;
18503;SDS011;9381;54.244;10.074;2023-05-07T20:07:06;11.02;;;5.22;;
18503;SDS011;9381;54.244;10.074;2023-05-07T20:12:07;8.23;;;4.93;;
18503;SDS011;9381;54.244;10.074;2023-05-07T20:17:07;8.63;;;5.43;;
18503;SDS011;9381;54.244;10.074;2023-05-07T20:22:07;8.05;;;5.60;;
18503;SDS011;9381;54.244;10.074;2023-05-07T20:27:08;8.80;;;5.30;;
18503;SDS011;9381;54.244;10.074;2023-05-07T20:32:09;12.87;;;5.47;;
18503;SDS011;9381;54.244;10.074;2023-05-07T20:37:10;10.57;;;5.30;;
18503;SDS011;9381;54.244;10.074;2023-05-07T20:42:13;11.43;;;5.33;;
18503;SDS011;9381;54.244;10.074;2023-05-07T20:47:13;8.73;;;5.20;;
18503;SDS011;9381;54.244;10.074;2023-05-07T20:52:14;9.50;;;6.07;;
18503;SDS011;9381;54.244;10.074;2023-05-07T20:57:14;7.37;;;5.30;;
18503;SDS011;9381;54.244;10.074;2023-05-07T21:02:15;10.00;;;6.03;;
18503;SDS011;9381;54.244;10.074;2023-05-07T21:07:16;8.37;;;4.97;;
18503;SDS011;9381;54.244;10.074;2023-05-07T21:12:16;11.00;;;5.47;;
18503;SDS011;9381;54.244;10.074;2023-05-07T21:17:16;8.33;;;5.50;;
18503;SDS011;9381;54.244;10.074;2023-05-07T21:22:17;8.60;;;5.75;;
18503;SDS011;9381;54.244;10.074;2023-05-07T21:27:17;7.60;;;4.82;;
18503;SDS011;9381;54.244;10.074;2023-05-07T21:32:17;6.15;;;4.60;;
18503;SDS011;9381;54.244;10.074;2023-05-07T21:37:17;6.00;;;5.03;;
18503;SDS011;9381;54.244;10.074;2023-05-07T21:42:18;9.20;;;4.93;;
18503;SDS011;9381;54.244;10.074;2023-05-07T21:47:18;7.13;;;4.80;;
18503;SDS011;9381;54.244;10.074;2023-05-07T21:52:18;6.67;;;4.83;;
18503;SDS011;9381;54.244;10.074;2023-05-07T21:57:19;9.00;;;5.53;;
18503;SDS011;9381;54.244;10.074;2023-05-07T22:02:20;6.23;;;4.70;;
18503;SDS011;9381;54.244;10.074;2023-05-07T22:07:20;5.97;;;4.72;;
18503;SDS011;9381;54.244;10.074;2023-05-07T22:12:20;5.13;;;4.40;;
18503;SDS011;9381;54.244;10.074;2023-05-07T22:17:21;8.27;;;4.50;;
18503;SDS011;9381;54.244;10.074;2023-05-07T22:22:23;7.10;;;4.97;;
18503;SDS011;9381;54.244;10.074;2023-05-07T22:27:23;10.87;;;5.40;;
18503;SDS011;9381;54.244;10.074;2023-05-07T22:32:23;7.95;;;4.82;;
18503;SDS011;9381;54.244;10.074;2023-05-07T22:37:24;5.50;;;4.65;;
18503;SDS011;9381;54.244;10.074;2023-05-07T22:42:24;8.07;;;4.90;;
18503;SDS011;9381;54.244;10.074;2023-05-07T22:47:27;8.10;;;4.97;;
18503;SDS011;9381;54.244;10.074;2023-05-07T22:52:28;9.03;;;4.77;;
18503;SDS011;9381;54.244;10.074;2023-05-07T22:57:28;8.88;;;5.30;;
18503;SDS011;9381;54.244;10.074;2023-05-07T23:02:28;6.00;;;4.95;;
18503;SDS011;9381;54.244;10.074;2023-05-07T23:07:29;8.43;;;5.10;;
18503;SDS011;9381;54.244;10.074;2023-05-07T23:12:29;6.33;;;4.70;;
18503;SDS011;9381;54.244;10.074;2023-05-07T23:17:29;6.47;;;4.95;;
18503;SDS011;9381;54.244;10.074;2023-05-07T23:22:29;6.80;;;4.72;;
18503;SDS011;9381;54.244;10.074;2023-05-07T23:27:30;6.20;;;4.83;;
18503;SDS011;9381;54.244;10.074;2023-05-07T23:32:31;9.63;;;5.23;;
18503;SDS011;9381;54.244;10.074;2023-05-07T23:37:31;7.23;;;5.40;;
18503;SDS011;9381;54.244;10.074;2023-05-07T23:42:31;10.43;;;5.53;;
18503;SDS011;9381;54.244;10.074;2023-05-07T23:47:32;6.55;;;5.22;;
18503;SDS011;9381;54.244;10.074;2023-05-07T23:52:32;6.70;;;5.55;;
18503;SDS011;9381;54.244;10.074;2023-05-07T23:57:32;7.33;;;5.00;;
